SVA1054 OEJN-OERK
Flight info
| Callsign | SVA1054 |
|---|---|
| Flight time | N/A |
| Altitude | 39000 |
| Route | EGREP2W/34C EGREP T532 ORDEM |
| Aircraft | B77W/H-SDE1E2E3FGHIJ3J4J5M1RWXY/LBD1 |
Departure
| Time | N/A |
|---|---|
| Airport | King Abdulaziz International Airport (OEJN) |
Arrival
| Time | 2026-05-06 22:51 |
|---|---|
| Airport | King Khalid International Airport (OERK) |
| Time | Latitude | Longitude | Altitude | Speed | Heading |
|---|---|---|---|---|---|
| 2026-05-06 21:41 | 22.03438 | 39.37195 | 15406 ft | 419 kts | 46° |
| 2026-05-06 21:41 | 22.05518 | 39.39420 | 16278 ft | 425 kts | 45° |
| 2026-05-06 21:41 | 22.07630 | 39.41683 | 17152 ft | 432 kts | 45° |
| 2026-05-06 21:41 | 22.09779 | 39.43984 | 18010 ft | 438 kts | 45° |
| 2026-05-06 21:42 | 22.11955 | 39.46317 | 18770 ft | 445 kts | 45° |
| 2026-05-06 21:42 | 22.14168 | 39.48690 | 19525 ft | 450 kts | 45° |
| 2026-05-06 21:42 | 22.16392 | 39.51076 | 20332 ft | 455 kts | 45° |
| 2026-05-06 21:42 | 22.18646 | 39.53495 | 21114 ft | 460 kts | 45° |
| 2026-05-06 21:43 | 22.20902 | 39.55918 | 21871 ft | 465 kts | 44° |
| 2026-05-06 21:43 | 22.23207 | 39.58395 | 22615 ft | 471 kts | 44° |
| 2026-05-06 21:43 | 22.25539 | 39.60903 | 23354 ft | 476 kts | 44° |
| 2026-05-06 21:43 | 22.27899 | 39.63442 | 23976 ft | 482 kts | 44° |
| 2026-05-06 21:44 | 22.30285 | 39.66009 | 24543 ft | 487 kts | 44° |
| 2026-05-06 21:44 | 22.32694 | 39.68602 | 25141 ft | 493 kts | 44° |
| 2026-05-06 21:44 | 22.35137 | 39.71235 | 25681 ft | 499 kts | 44° |
| 2026-05-06 21:44 | 22.37615 | 39.73906 | 26234 ft | 505 kts | 44° |
| 2026-05-06 21:45 | 22.40113 | 39.76601 | 26802 ft | 510 kts | 44° |
| 2026-05-06 21:45 | 22.42599 | 39.79284 | 27332 ft | 515 kts | 44° |
| 2026-05-06 21:45 | 22.45147 | 39.82034 | 27888 ft | 520 kts | 44° |
| 2026-05-06 21:45 | 22.47764 | 39.84771 | 28342 ft | 526 kts | 41° |
| 2026-05-06 21:46 | 22.50493 | 39.87427 | 28777 ft | 531 kts | 40° |
| 2026-05-06 21:46 | 22.53289 | 39.90079 | 29223 ft | 537 kts | 39° |
| 2026-05-06 21:46 | 22.56115 | 39.92735 | 29717 ft | 541 kts | 39° |
| 2026-05-06 21:46 | 22.58965 | 39.95415 | 30181 ft | 545 kts | 39° |
| 2026-05-06 21:47 | 22.61830 | 39.98124 | 30559 ft | 549 kts | 39° |
| 2026-05-06 21:47 | 22.64659 | 40.00815 | 31020 ft | 550 kts | 39° |
| 2026-05-06 21:47 | 22.67526 | 40.03555 | 31537 ft | 550 kts | 39° |
| 2026-05-06 21:47 | 22.70386 | 40.06294 | 32028 ft | 551 kts | 39° |
| 2026-05-06 21:48 | 22.73259 | 40.09049 | 32485 ft | 552 kts | 39° |
| 2026-05-06 21:48 | 22.76136 | 40.11810 | 32943 ft | 553 kts | 39° |
| 2026-05-06 21:48 | 22.79019 | 40.14575 | 33410 ft | 554 kts | 39° |
| 2026-05-06 21:48 | 22.81909 | 40.17349 | 33891 ft | 554 kts | 39° |
| 2026-05-06 21:49 | 22.84792 | 40.20117 | 34315 ft | 554 kts | 39° |
| 2026-05-06 21:49 | 22.87644 | 40.22855 | 34703 ft | 555 kts | 39° |
| 2026-05-06 21:49 | 22.90528 | 40.25627 | 35114 ft | 554 kts | 39° |
| 2026-05-06 21:49 | 22.93413 | 40.28402 | 35529 ft | 554 kts | 39° |
| 2026-05-06 21:50 | 22.96291 | 40.31170 | 35918 ft | 554 kts | 39° |
| 2026-05-06 21:50 | 22.99174 | 40.33946 | 36284 ft | 554 kts | 38° |
| 2026-05-06 21:50 | 23.02056 | 40.36722 | 36664 ft | 554 kts | 38° |
| 2026-05-06 21:50 | 23.04938 | 40.39500 | 37025 ft | 554 kts | 38° |
| 2026-05-06 21:51 | 23.10752 | 40.45107 | 37052 ft | 560 kts | 38° |
| 2026-05-06 21:51 | 23.16508 | 40.50671 | 37014 ft | 554 kts | 38° |
| 2026-05-06 21:52 | 23.22244 | 40.56219 | 37021 ft | 550 kts | 38° |
| 2026-05-06 21:52 | 23.27303 | 40.62476 | 37056 ft | 554 kts | 55° |
| 2026-05-06 21:53 | 23.30901 | 40.69904 | 37025 ft | 557 kts | 70° |
| 2026-05-06 21:53 | 23.33572 | 40.77820 | 37029 ft | 559 kts | 71° |
| 2026-05-06 21:54 | 23.36212 | 40.85746 | 37025 ft | 562 kts | 71° |
| 2026-05-06 21:54 | 23.38946 | 40.93734 | 37020 ft | 564 kts | 70° |
| 2026-05-06 21:55 | 23.41721 | 41.01731 | 37024 ft | 565 kts | 70° |
| 2026-05-06 21:55 | 23.44493 | 41.09731 | 37017 ft | 565 kts | 70° |
| 2026-05-06 21:56 | 23.47231 | 41.17671 | 37007 ft | 564 kts | 70° |
| 2026-05-06 21:56 | 23.49978 | 41.25660 | 37011 ft | 563 kts | 71° |
| 2026-05-06 21:57 | 23.52716 | 41.33638 | 37009 ft | 562 kts | 71° |
| 2026-05-06 21:57 | 23.55429 | 41.41556 | 37010 ft | 561 kts | 71° |
| 2026-05-06 21:58 | 23.58152 | 41.49519 | 37004 ft | 560 kts | 71° |
| 2026-05-06 21:58 | 23.60869 | 41.57480 | 36987 ft | 560 kts | 71° |
| 2026-05-06 21:59 | 23.63578 | 41.65434 | 36993 ft | 560 kts | 71° |
| 2026-05-06 21:59 | 23.66268 | 41.73346 | 37012 ft | 560 kts | 71° |
| 2026-05-06 22:00 | 23.68912 | 41.81352 | 36983 ft | 561 kts | 72° |
| 2026-05-06 22:00 | 23.71422 | 41.89419 | 36993 ft | 562 kts | 72° |
| 2026-05-06 22:01 | 23.73953 | 41.97492 | 36991 ft | 563 kts | 72° |
| 2026-05-06 22:01 | 23.76577 | 42.05486 | 36972 ft | 563 kts | 70° |
| 2026-05-06 22:02 | 23.79347 | 42.13482 | 36978 ft | 563 kts | 70° |
| 2026-05-06 22:02 | 23.82111 | 42.21483 | 36954 ft | 563 kts | 70° |
| 2026-05-06 22:03 | 23.84836 | 42.29474 | 36968 ft | 561 kts | 71° |
| 2026-05-06 22:03 | 23.87544 | 42.37467 | 36977 ft | 560 kts | 71° |
| 2026-05-06 22:04 | 23.90227 | 42.45399 | 36980 ft | 560 kts | 71° |
| 2026-05-06 22:04 | 23.92927 | 42.53387 | 36974 ft | 560 kts | 71° |
| 2026-05-06 22:05 | 23.95621 | 42.61370 | 36973 ft | 560 kts | 71° |
| 2026-05-06 22:05 | 23.98308 | 42.69350 | 36963 ft | 559 kts | 71° |
| 2026-05-06 22:06 | 24.00988 | 42.77323 | 36988 ft | 558 kts | 71° |
| 2026-05-06 22:06 | 24.03642 | 42.85239 | 36971 ft | 559 kts | 71° |
| 2026-05-06 22:07 | 24.06309 | 42.93227 | 36974 ft | 559 kts | 71° |
| 2026-05-06 22:07 | 24.08948 | 43.01232 | 36976 ft | 559 kts | 71° |
| 2026-05-06 22:08 | 24.11575 | 43.09231 | 36981 ft | 558 kts | 71° |
| 2026-05-06 22:08 | 24.14181 | 43.17173 | 36980 ft | 558 kts | 72° |
| 2026-05-06 22:09 | 24.16804 | 43.25172 | 36961 ft | 558 kts | 72° |
| 2026-05-06 22:09 | 24.19415 | 43.33148 | 36970 ft | 555 kts | 72° |
| 2026-05-06 22:10 | 24.20711 | 43.37114 | 36791 ft | 552 kts | 72° |
| 2026-05-06 22:10 | 24.22005 | 43.41078 | 36451 ft | 553 kts | 72° |
| 2026-05-06 22:10 | 24.23300 | 43.45050 | 36103 ft | 554 kts | 72° |
| 2026-05-06 22:10 | 24.24595 | 43.49029 | 35749 ft | 555 kts | 72° |
| 2026-05-06 22:11 | 24.25874 | 43.52958 | 35403 ft | 555 kts | 72° |
| 2026-05-06 22:11 | 24.27169 | 43.56943 | 35073 ft | 555 kts | 73° |
| 2026-05-06 22:11 | 24.28461 | 43.60921 | 34847 ft | 552 kts | 73° |
| 2026-05-06 22:11 | 24.29745 | 43.64876 | 34519 ft | 549 kts | 73° |
| 2026-05-06 22:12 | 24.31019 | 43.68801 | 34023 ft | 545 kts | 73° |
| 2026-05-06 22:12 | 24.32282 | 43.72701 | 33492 ft | 541 kts | 73° |
| 2026-05-06 22:12 | 24.33533 | 43.76571 | 32954 ft | 536 kts | 73° |
| 2026-05-06 22:12 | 24.34773 | 43.80408 | 32460 ft | 532 kts | 73° |
| 2026-05-06 22:13 | 24.35986 | 43.84164 | 31962 ft | 527 kts | 73° |
| 2026-05-06 22:13 | 24.37219 | 43.87989 | 31469 ft | 523 kts | 73° |
| 2026-05-06 22:13 | 24.38406 | 43.91674 | 30993 ft | 518 kts | 73° |
| 2026-05-06 22:13 | 24.39601 | 43.95387 | 30515 ft | 514 kts | 73° |
| 2026-05-06 22:14 | 24.40785 | 43.99070 | 30017 ft | 510 kts | 73° |
| 2026-05-06 22:14 | 24.41960 | 44.02728 | 29450 ft | 506 kts | 72° |
| 2026-05-06 22:14 | 24.43124 | 44.06354 | 28924 ft | 501 kts | 72° |
| 2026-05-06 22:14 | 24.44273 | 44.09947 | 28425 ft | 496 kts | 73° |
| 2026-05-06 22:15 | 24.45251 | 44.13552 | 27937 ft | 490 kts | 79° |
| 2026-05-06 22:15 | 24.45918 | 44.17194 | 27445 ft | 484 kts | 83° |
| 2026-05-06 22:15 | 24.46506 | 44.20766 | 26969 ft | 480 kts | 83° |
| 2026-05-06 22:15 | 24.47093 | 44.24361 | 26487 ft | 477 kts | 83° |
| 2026-05-06 22:16 | 24.47684 | 44.27917 | 26002 ft | 473 kts | 83° |
| 2026-05-06 22:16 | 24.48284 | 44.31465 | 25525 ft | 470 kts | 82° |
| 2026-05-06 22:16 | 24.48886 | 44.34980 | 25044 ft | 467 kts | 82° |
| 2026-05-06 22:16 | 24.49486 | 44.38466 | 24554 ft | 465 kts | 82° |
| 2026-05-06 22:17 | 24.50084 | 44.41943 | 24073 ft | 462 kts | 82° |
| 2026-05-06 22:17 | 24.50679 | 44.45403 | 23586 ft | 460 kts | 83° |
| 2026-05-06 22:17 | 24.51268 | 44.48846 | 23031 ft | 457 kts | 83° |
| 2026-05-06 22:17 | 24.51845 | 44.52220 | 22529 ft | 453 kts | 82° |
| 2026-05-06 22:18 | 24.52428 | 44.55605 | 22037 ft | 450 kts | 82° |
| 2026-05-06 22:18 | 24.53009 | 44.58964 | 21554 ft | 446 kts | 82° |
| 2026-05-06 22:18 | 24.53585 | 44.62296 | 21072 ft | 442 kts | 82° |
| 2026-05-06 22:18 | 24.54156 | 44.65603 | 20597 ft | 439 kts | 82° |
| 2026-05-06 22:19 | 24.54720 | 44.68882 | 20139 ft | 436 kts | 82° |
| 2026-05-06 22:19 | 24.55279 | 44.72140 | 19660 ft | 433 kts | 81° |
| 2026-05-06 22:19 | 24.55833 | 44.75371 | 19189 ft | 430 kts | 81° |
| 2026-05-06 22:19 | 24.56384 | 44.78595 | 18689 ft | 428 kts | 81° |
| 2026-05-06 22:20 | 24.56926 | 44.81764 | 18208 ft | 426 kts | 81° |
| 2026-05-06 22:20 | 24.57471 | 44.84957 | 17656 ft | 424 kts | 81° |
| 2026-05-06 22:20 | 24.58012 | 44.88128 | 17154 ft | 420 kts | 81° |
| 2026-05-06 22:20 | 24.58549 | 44.91274 | 16660 ft | 417 kts | 81° |
| 2026-05-06 22:21 | 24.59079 | 44.94394 | 16168 ft | 414 kts | 81° |
| 2026-05-06 22:21 | 24.59603 | 44.97476 | 15951 ft | 403 kts | 81° |
| 2026-05-06 22:21 | 24.60106 | 45.00446 | 15923 ft | 387 kts | 81° |
| 2026-05-06 22:21 | 24.60587 | 45.03297 | 15880 ft | 373 kts | 81° |
| 2026-05-06 22:22 | 24.61045 | 45.06012 | 15744 ft | 363 kts | 81° |
| 2026-05-06 22:22 | 24.61503 | 45.08742 | 15371 ft | 364 kts | 81° |
| 2026-05-06 22:22 | 24.61961 | 45.11484 | 15048 ft | 364 kts | 81° |
| 2026-05-06 22:22 | 24.62419 | 45.14218 | 14981 ft | 363 kts | 81° |
| 2026-05-06 22:23 | 24.62877 | 45.16952 | 14984 ft | 364 kts | 81° |
| 2026-05-06 22:23 | 24.63336 | 45.19701 | 14987 ft | 366 kts | 81° |
| 2026-05-06 22:23 | 24.63795 | 45.22446 | 14986 ft | 365 kts | 81° |
| 2026-05-06 22:23 | 24.64253 | 45.25190 | 14972 ft | 363 kts | 81° |
| 2026-05-06 22:24 | 24.64701 | 45.27872 | 14969 ft | 362 kts | 81° |
| 2026-05-06 22:24 | 24.65153 | 45.30585 | 14969 ft | 360 kts | 81° |
| 2026-05-06 22:24 | 24.65603 | 45.33290 | 14972 ft | 359 kts | 81° |
| 2026-05-06 22:24 | 24.66052 | 45.35988 | 14975 ft | 359 kts | 81° |
| 2026-05-06 22:25 | 24.66499 | 45.38687 | 14973 ft | 359 kts | 81° |
| 2026-05-06 22:25 | 24.66947 | 45.41387 | 14979 ft | 359 kts | 81° |
| 2026-05-06 22:25 | 24.67395 | 45.44092 | 14980 ft | 360 kts | 81° |
| 2026-05-06 22:25 | 24.67837 | 45.46765 | 14978 ft | 361 kts | 81° |
| 2026-05-06 22:26 | 24.68286 | 45.49480 | 14976 ft | 361 kts | 81° |
| 2026-05-06 22:26 | 24.68735 | 45.52199 | 14975 ft | 362 kts | 81° |
| 2026-05-06 22:26 | 24.69183 | 45.54921 | 14973 ft | 362 kts | 81° |
| 2026-05-06 22:26 | 24.69632 | 45.57645 | 14975 ft | 362 kts | 81° |
| 2026-05-06 22:27 | 24.70080 | 45.60366 | 14968 ft | 363 kts | 81° |
| 2026-05-06 22:27 | 24.70529 | 45.63094 | 14969 ft | 360 kts | 81° |
| 2026-05-06 22:27 | 24.70967 | 45.65758 | 14956 ft | 347 kts | 81° |
| 2026-05-06 22:27 | 24.71398 | 45.68322 | 14920 ft | 336 kts | 79° |
| 2026-05-06 22:28 | 24.71918 | 45.70775 | 14691 ft | 331 kts | 77° |
| 2026-05-06 22:28 | 24.72492 | 45.73214 | 14479 ft | 328 kts | 76° |
| 2026-05-06 22:28 | 24.73065 | 45.75638 | 14255 ft | 326 kts | 77° |
| 2026-05-06 22:28 | 24.73628 | 45.78051 | 14039 ft | 325 kts | 77° |
| 2026-05-06 22:29 | 24.74182 | 45.80462 | 13820 ft | 325 kts | 77° |
| 2026-05-06 22:29 | 24.74730 | 45.82870 | 13570 ft | 324 kts | 77° |
| 2026-05-06 22:29 | 24.75275 | 45.85275 | 13348 ft | 323 kts | 77° |
| 2026-05-06 22:29 | 24.75820 | 45.87671 | 13118 ft | 320 kts | 76° |
| 2026-05-06 22:30 | 24.76691 | 45.89869 | 12909 ft | 318 kts | 56° |
| 2026-05-06 22:30 | 24.78135 | 45.91698 | 12832 ft | 319 kts | 45° |
| 2026-05-06 22:30 | 24.79742 | 45.93418 | 12735 ft | 325 kts | 44° |
| 2026-05-06 22:30 | 24.81378 | 45.95142 | 12595 ft | 326 kts | 44° |
| 2026-05-06 22:31 | 24.83010 | 45.96865 | 12466 ft | 324 kts | 44° |
| 2026-05-06 22:31 | 24.84627 | 45.98582 | 12342 ft | 322 kts | 44° |
| 2026-05-06 22:31 | 24.86235 | 46.00299 | 12216 ft | 321 kts | 44° |
| 2026-05-06 22:31 | 24.87832 | 46.02012 | 12101 ft | 320 kts | 44° |
| 2026-05-06 22:32 | 24.89422 | 46.03723 | 11991 ft | 319 kts | 44° |
| 2026-05-06 22:32 | 24.90986 | 46.05411 | 11868 ft | 319 kts | 44° |
| 2026-05-06 22:32 | 24.92569 | 46.07120 | 11744 ft | 318 kts | 45° |
| 2026-05-06 22:32 | 24.94145 | 46.08825 | 11628 ft | 318 kts | 45° |
| 2026-05-06 22:33 | 24.95718 | 46.10527 | 11507 ft | 317 kts | 45° |
| 2026-05-06 22:33 | 24.97294 | 46.12232 | 11402 ft | 317 kts | 45° |
| 2026-05-06 22:33 | 24.98869 | 46.13939 | 11258 ft | 317 kts | 45° |
| 2026-05-06 22:33 | 25.00442 | 46.15645 | 11155 ft | 318 kts | 45° |
| 2026-05-06 22:34 | 25.02017 | 46.17352 | 11056 ft | 317 kts | 46° |
| 2026-05-06 22:34 | 25.03591 | 46.19059 | 10911 ft | 317 kts | 46° |
| 2026-05-06 22:34 | 25.05143 | 46.20744 | 10807 ft | 317 kts | 46° |
| 2026-05-06 22:34 | 25.06714 | 46.22450 | 10687 ft | 317 kts | 46° |
| 2026-05-06 22:35 | 25.08284 | 46.24154 | 10560 ft | 317 kts | 46° |
| 2026-05-06 22:35 | 25.09850 | 46.25855 | 10438 ft | 316 kts | 46° |
| 2026-05-06 22:35 | 25.11421 | 46.27564 | 10323 ft | 316 kts | 46° |
| 2026-05-06 22:35 | 25.12985 | 46.29264 | 10195 ft | 316 kts | 46° |
| 2026-05-06 22:36 | 25.14538 | 46.30952 | 10086 ft | 311 kts | 46° |
| 2026-05-06 22:36 | 25.16064 | 46.32611 | 9941 ft | 304 kts | 46° |
| 2026-05-06 22:36 | 25.17537 | 46.34214 | 9842 ft | 300 kts | 47° |
| 2026-05-06 22:36 | 25.19106 | 46.35715 | 9707 ft | 300 kts | 31° |
| 2026-05-06 22:37 | 25.21090 | 46.36407 | 9603 ft | 303 kts | 2° |
| 2026-05-06 22:37 | 25.23156 | 46.36069 | 9504 ft | 302 kts | 336° |
| 2026-05-06 22:37 | 25.25005 | 46.34992 | 9414 ft | 301 kts | 327° |
| 2026-05-06 22:37 | 25.26814 | 46.33804 | 9268 ft | 304 kts | 327° |
| 2026-05-06 22:38 | 25.28636 | 46.32623 | 9166 ft | 302 kts | 327° |
| 2026-05-06 22:38 | 25.30443 | 46.31461 | 9054 ft | 299 kts | 327° |
| 2026-05-06 22:38 | 25.32233 | 46.30313 | 8913 ft | 296 kts | 327° |
| 2026-05-06 22:38 | 25.33986 | 46.29193 | 8812 ft | 294 kts | 327° |
| 2026-05-06 22:39 | 25.35737 | 46.28077 | 8708 ft | 286 kts | 327° |
| 2026-05-06 22:39 | 25.37438 | 46.26997 | 8564 ft | 276 kts | 329° |
| 2026-05-06 22:39 | 25.39222 | 46.26382 | 8450 ft | 267 kts | 359° |
| 2026-05-06 22:39 | 25.41021 | 46.26777 | 8380 ft | 267 kts | 28° |
| 2026-05-06 22:40 | 25.42531 | 46.27939 | 8292 ft | 263 kts | 50° |
| 2026-05-06 22:40 | 25.43550 | 46.29570 | 8195 ft | 255 kts | 65° |
| 2026-05-06 22:40 | 25.44425 | 46.31277 | 8101 ft | 256 kts | 64° |
| 2026-05-06 22:40 | 25.45286 | 46.32993 | 7992 ft | 252 kts | 71° |
| 2026-05-06 22:41 | 25.44986 | 46.36458 | 7814 ft | 227 kts | 128° |
| 2026-05-06 22:41 | 25.43947 | 46.37736 | 7727 ft | 222 kts | 147° |
| 2026-05-06 22:41 | 25.42642 | 46.38637 | 7662 ft | 222 kts | 153° |
| 2026-05-06 22:42 | 25.41285 | 46.39478 | 7578 ft | 225 kts | 153° |
| 2026-05-06 22:42 | 25.39910 | 46.40335 | 7494 ft | 228 kts | 153° |
| 2026-05-06 22:42 | 25.38527 | 46.41207 | 7407 ft | 230 kts | 153° |
| 2026-05-06 22:42 | 25.37143 | 46.42085 | 7310 ft | 228 kts | 152° |
| 2026-05-06 22:43 | 25.35798 | 46.42938 | 7219 ft | 224 kts | 152° |
| 2026-05-06 22:43 | 25.34453 | 46.43789 | 7141 ft | 222 kts | 152° |
| 2026-05-06 22:43 | 25.33153 | 46.44689 | 7063 ft | 220 kts | 143° |
| 2026-05-06 22:43 | 25.32037 | 46.45907 | 7014 ft | 234 kts | 135° |
| 2026-05-06 22:44 | 25.30836 | 46.47096 | 6894 ft | 231 kts | 146° |
| 2026-05-06 22:44 | 25.29503 | 46.48104 | 6814 ft | 234 kts | 148° |
| 2026-05-06 22:44 | 25.28152 | 46.49114 | 6729 ft | 235 kts | 147° |
| 2026-05-06 22:44 | 25.26828 | 46.50130 | 6621 ft | 234 kts | 146° |
| 2026-05-06 22:45 | 25.25505 | 46.51166 | 6526 ft | 233 kts | 146° |
| 2026-05-06 22:45 | 25.24193 | 46.52211 | 6440 ft | 232 kts | 146° |
| 2026-05-06 22:45 | 25.22895 | 46.53256 | 6352 ft | 230 kts | 145° |
| 2026-05-06 22:45 | 25.21608 | 46.54301 | 6265 ft | 229 kts | 145° |
| 2026-05-06 22:46 | 25.20325 | 46.55345 | 6183 ft | 229 kts | 145° |
| 2026-05-06 22:46 | 25.19041 | 46.56391 | 6098 ft | 229 kts | 145° |
| 2026-05-06 22:46 | 25.17760 | 46.57434 | 5991 ft | 231 kts | 144° |
| 2026-05-06 22:46 | 25.16388 | 46.58411 | 5757 ft | 238 kts | 150° |
| 2026-05-06 22:47 | 25.14949 | 46.59308 | 5526 ft | 241 kts | 150° |
| 2026-05-06 22:47 | 25.13493 | 46.60210 | 5259 ft | 239 kts | 150° |
| 2026-05-06 22:47 | 25.12067 | 46.61102 | 5094 ft | 230 kts | 150° |
| 2026-05-06 22:47 | 25.10698 | 46.61947 | 4863 ft | 222 kts | 151° |
| 2026-05-06 22:48 | 25.09400 | 46.62757 | 4600 ft | 207 kts | 149° |
| 2026-05-06 22:48 | 25.08189 | 46.63524 | 4345 ft | 194 kts | 148° |
| 2026-05-06 22:48 | 25.07066 | 46.64239 | 4125 ft | 179 kts | 147° |
| 2026-05-06 22:48 | 25.06035 | 46.64895 | 3900 ft | 163 kts | 146° |
| 2026-05-06 22:49 | 25.05102 | 46.65492 | 3726 ft | 158 kts | 146° |
| 2026-05-06 22:49 | 25.04134 | 46.66106 | 3517 ft | 161 kts | 146° |
| 2026-05-06 22:49 | 25.03176 | 46.66713 | 3308 ft | 155 kts | 147° |
| 2026-05-06 22:49 | 25.02266 | 46.67291 | 3119 ft | 148 kts | 147° |
| 2026-05-06 22:50 | 25.01378 | 46.67858 | 2927 ft | 148 kts | 147° |
| 2026-05-06 22:50 | 25.00483 | 46.68427 | 2737 ft | 149 kts | 147° |
| 2026-05-06 22:50 | 24.99583 | 46.68995 | 2520 ft | 148 kts | 149° |
| 2026-05-06 22:50 | 24.98706 | 46.69557 | 2319 ft | 144 kts | 149° |
| 2026-05-06 22:51 | 24.97862 | 46.70088 | 2098 ft | 139 kts | 148° |
| 2026-05-06 22:51 | 24.97053 | 46.70604 | 2044 ft | 123 kts | 150° |
| 2026-05-06 22:51 | 24.96443 | 46.70990 | 2043 ft | 79 kts | 151° |
| 2026-05-06 22:51 | 24.96092 | 46.71211 | 2040 ft | 47 kts | 149° |
| 2026-05-06 22:52 | 24.95830 | 46.71372 | 2045 ft | 36 kts | 156° |
| 2026-05-06 22:52 | 24.95603 | 46.71426 | 2041 ft | 22 kts | 184° |
| 2026-05-06 22:52 | 24.95475 | 46.71347 | 2043 ft | 22 kts | 234° |
| 2026-05-06 22:52 | 24.95397 | 46.71204 | 2043 ft | 22 kts | 240° |
| 2026-05-06 22:53 | 24.95333 | 46.71069 | 2042 ft | 15 kts | 262° |
| 2026-05-06 22:53 | 24.95369 | 46.71009 | 2043 ft | 15 kts | 325° |
| 2026-05-06 22:53 | 24.95487 | 46.70931 | 2045 ft | 15 kts | 329° |
| 2026-05-06 22:53 | 24.95551 | 46.70851 | 2044 ft | 13 kts | 269° |
| 2026-05-06 22:54 | 24.95525 | 46.70790 | 2035 ft | 9 kts | 238° |
| 2026-05-06 22:54 | 24.95499 | 46.70729 | 2042 ft | 6 kts | 263° |
| 2026-05-06 22:54 | 24.95505 | 46.70705 | 2039 ft | 5 kts | 292° |
| 2026-05-06 22:54 | 24.95522 | 46.70678 | 2043 ft | 4 kts | 310° |
| 2026-05-06 22:55 | 24.95526 | 46.70673 | 2043 ft | 0 kts | 310° |